createdAt,value
2018-04-11T00:01:06.334Z,40.40
2018-04-11T00:03:33.743Z,37.33
2018-04-11T00:06:01.167Z,38.57
2018-04-11T00:08:28.609Z,35.30
2018-04-11T00:10:56.027Z,37.67
2018-04-11T00:13:23.447Z,36.87
2018-04-11T00:15:50.881Z,35.47
2018-04-11T00:18:18.311Z,38.57
2018-04-11T00:20:45.708Z,36.87
2018-04-11T00:23:13.127Z,38.90
2018-04-11T00:25:40.552Z,39.67
2018-04-11T00:28:07.972Z,38.77
2018-04-11T00:30:35.401Z,37.00
2018-04-11T00:33:02.816Z,36.27
2018-04-11T00:35:30.245Z,36.33
2018-04-11T00:37:57.651Z,34.23
2018-04-11T00:40:25.071Z,34.70
2018-04-11T00:42:52.486Z,35.73
2018-04-11T00:45:20.052Z,33.13
2018-04-11T00:47:47.460Z,33.40
2018-04-11T00:50:14.873Z,34.50
2018-04-11T00:55:42.968Z,35.47
2018-04-11T00:58:10.460Z,35.33
2018-04-11T01:00:37.874Z,34.73
2018-04-11T01:03:05.322Z,34.97
2018-04-11T01:05:32.740Z,34.47
2018-04-11T01:08:00.161Z,32.27
2018-04-11T01:10:27.567Z,35.17
2018-04-11T01:12:55.349Z,39.13
2018-04-11T01:15:22.720Z,33.97
2018-04-11T01:17:50.132Z,40.20
2018-04-11T01:20:17.548Z,31.83
2018-04-11T01:22:44.952Z,39.13
2018-04-11T01:25:12.375Z,36.13
2018-04-11T01:27:39.792Z,34.67
2018-04-11T01:30:07.233Z,39.03
2018-04-11T01:32:34.638Z,35.67
2018-04-11T01:35:02.058Z,40.10
2018-04-11T01:37:29.471Z,35.53
2018-04-11T01:39:56.892Z,37.07
2018-04-11T01:42:24.320Z,39.40
2018-04-11T01:44:51.723Z,40.53
2018-04-11T01:47:19.148Z,33.07
2018-04-11T01:49:46.570Z,33.47
2018-04-11T01:52:14.002Z,33.47
2018-04-11T01:54:41.411Z,35.73
2018-04-11T01:57:08.821Z,31.10
2018-04-11T01:59:36.520Z,31.20
2018-04-11T02:02:03.928Z,38.67
2018-04-11T02:04:31.343Z,37.07
2018-04-11T02:06:58.765Z,36.90
2018-04-11T02:09:26.167Z,31.97
2018-04-11T02:11:53.600Z,33.00
2018-04-11T02:14:21.014Z,33.00
2018-04-11T02:16:48.415Z,33.13
2018-04-11T02:19:15.841Z,33.90
2018-04-11T02:21:43.256Z,36.80
2018-04-11T02:24:10.687Z,35.67
2018-04-11T02:26:38.112Z,39.20
2018-04-11T02:29:05.543Z,32.30
2018-04-11T02:31:32.943Z,34.40
2018-04-11T02:34:00.368Z,35.03
2018-04-11T02:36:27.777Z,36.70
2018-04-11T02:38:55.297Z,36.80
2018-04-11T02:41:22.708Z,35.63
2018-04-11T02:43:50.115Z,37.00
2018-04-11T02:46:17.549Z,35.03
2018-04-11T02:48:45.038Z,30.13
2018-04-11T02:51:12.461Z,29.53
2018-04-11T02:53:39.880Z,35.40
2018-04-11T02:56:07.297Z,35.13
2018-04-11T02:58:34.707Z,34.57
2018-04-11T03:01:02.140Z,37.63
2018-04-11T03:03:29.857Z,35.20
2018-04-11T03:05:57.255Z,34.43
2018-04-11T03:08:24.671Z,34.70
2018-04-11T03:10:52.100Z,33.83
2018-04-11T03:13:19.523Z,33.47
2018-04-11T03:15:46.964Z,33.57
2018-04-11T03:18:14.389Z,35.60
2018-04-11T03:20:41.804Z,31.47
2018-04-11T03:23:09.228Z,35.97
2018-04-11T03:25:36.639Z,33.70
2018-04-11T03:28:04.080Z,35.57
2018-04-11T03:30:31.787Z,31.30
2018-04-11T03:32:59.223Z,39.30
2018-04-11T03:35:26.623Z,35.07
2018-04-11T03:37:54.047Z,29.63
2018-04-11T03:40:21.452Z,34.67
2018-04-11T03:42:48.883Z,35.90
2018-04-11T03:45:16.291Z,35.93
2018-04-11T03:47:43.711Z,34.00
2018-04-11T03:50:11.216Z,31.73
2018-04-11T03:52:38.623Z,36.87
2018-04-11T03:55:06.077Z,37.43
2018-04-11T03:57:33.498Z,35.63
2018-04-11T04:00:00.916Z,31.50
2018-04-11T04:02:28.320Z,33.50
2018-04-11T04:04:55.745Z,34.77
2018-04-11T04:07:23.151Z,34.27
2018-04-11T04:09:50.571Z,38.37
2018-04-11T04:12:17.983Z,32.97
2018-04-11T04:14:57.195Z,35.13
2018-04-11T04:17:36.453Z,38.83
2018-04-11T04:20:28.659Z,35.17
2018-04-11T04:22:56.070Z,33.00
2018-04-11T04:25:23.485Z,34.00
2018-04-11T04:27:50.902Z,33.10
2018-04-11T04:30:18.323Z,31.83
2018-04-11T04:32:45.784Z,39.07
2018-04-11T04:35:13.191Z,38.73
2018-04-11T04:37:40.779Z,33.37
2018-04-11T04:40:08.197Z,32.80
2018-04-11T04:42:35.628Z,30.70
2018-04-11T04:45:03.291Z,30.67
2018-04-11T04:47:30.696Z,31.03
2018-04-11T04:49:58.109Z,36.50
2018-04-11T04:52:25.699Z,32.73
2018-04-11T04:54:53.111Z,36.17
2018-04-11T04:57:20.533Z,39.20
2018-04-11T04:59:47.959Z,40.33
2018-04-11T05:02:15.369Z,34.10
2018-04-11T05:04:42.794Z,32.60
2018-04-11T05:07:10.187Z,34.80
2018-04-11T05:09:37.614Z,37.47
2018-04-11T05:12:05.024Z,37.67
2018-04-11T05:14:32.448Z,33.17
2018-04-11T05:16:59.872Z,38.03
2018-04-11T05:19:27.296Z,31.90
2018-04-11T05:21:54.713Z,33.23
2018-04-11T05:24:22.127Z,32.23
2018-04-11T05:26:49.548Z,34.10
2018-04-11T05:29:17.088Z,29.90
2018-04-11T05:31:44.508Z,31.57
2018-04-11T05:34:11.913Z,28.40
2018-04-11T05:36:39.338Z,33.90
2018-04-11T05:39:06.743Z,34.13
2018-04-11T05:41:34.187Z,34.27
2018-04-11T05:44:01.591Z,35.97
2018-04-11T05:46:29.008Z,38.20
2018-04-11T05:48:56.430Z,37.77
2018-04-11T05:51:23.839Z,35.80
2018-04-11T05:53:51.249Z,31.53
2018-04-11T05:56:18.672Z,40.87
2018-04-11T05:58:46.099Z,31.87
2018-04-11T06:01:13.518Z,32.33
2018-04-11T06:03:40.932Z,34.77
2018-04-11T06:06:08.464Z,28.90
2018-04-11T06:08:36.144Z,28.60
2018-04-11T06:11:03.549Z,31.67
2018-04-11T06:13:30.960Z,31.57
2018-04-11T06:15:58.386Z,30.93
2018-04-11T06:18:25.796Z,31.07
2018-04-11T06:20:53.284Z,28.87
2018-04-11T06:23:20.688Z,35.00
2018-04-11T06:25:48.119Z,30.50
2018-04-11T06:28:15.560Z,33.63
2018-04-11T06:30:42.951Z,35.53
2018-04-11T06:33:10.360Z,32.83
2018-04-11T06:35:38.004Z,32.13
2018-04-11T06:38:05.415Z,34.30
2018-04-11T06:40:32.816Z,38.67
2018-04-11T06:43:00.252Z,33.00
2018-04-11T06:45:27.658Z,35.07
2018-04-11T06:47:55.344Z,39.90
2018-04-11T06:50:22.762Z,36.17
2018-04-11T06:52:50.209Z,38.27
2018-04-11T06:55:17.724Z,37.33
2018-04-11T06:57:45.175Z,37.30
2018-04-11T07:00:12.576Z,38.90
2018-04-11T07:02:40.116Z,35.17
2018-04-11T07:05:07.515Z,37.97
2018-04-11T07:07:34.924Z,30.50
2018-04-11T07:10:02.352Z,28.30
2018-04-11T07:12:29.764Z,31.70
2018-04-11T07:14:57.412Z,33.17
2018-04-11T07:17:24.815Z,33.20
2018-04-11T07:19:52.341Z,34.37
2018-04-11T07:22:19.780Z,33.90
2018-04-11T07:24:47.204Z,31.37
2018-04-11T07:27:14.624Z,35.13
2018-04-11T07:29:42.050Z,35.40
2018-04-11T07:32:09.706Z,33.90
2018-04-11T07:34:37.117Z,31.60
2018-04-11T07:37:04.529Z,38.67
2018-04-11T07:39:31.960Z,33.40
2018-04-11T07:41:59.363Z,32.37
2018-04-11T07:44:26.799Z,28.57
2018-04-11T07:46:54.251Z,29.07
2018-04-11T07:49:21.679Z,31.60
2018-04-11T07:51:49.080Z,29.33
2018-04-11T07:54:16.724Z,28.73
2018-04-11T07:56:44.145Z,27.17
2018-04-11T07:59:11.554Z,31.33
2018-04-11T08:01:38.992Z,25.17
2018-04-11T08:04:06.433Z,33.40
2018-04-11T08:06:33.843Z,28.57
2018-04-11T08:09:01.478Z,25.00
2018-04-11T08:11:28.887Z,27.00
2018-04-11T08:13:56.300Z,25.20
2018-04-11T08:16:23.749Z,26.07
2018-04-11T08:18:51.199Z,27.35
2018-04-11T08:21:18.598Z,26.63
2018-04-11T08:23:45.580Z,25.40
2018-04-11T08:26:12.992Z,28.77
2018-04-11T08:28:40.396Z,26.00
2018-04-11T08:31:07.850Z,29.60
2018-04-11T08:33:35.439Z,26.50
2018-04-11T08:36:02.858Z,27.83
2018-04-11T08:38:30.271Z,28.57
2018-04-11T08:40:57.718Z,28.27
2018-04-11T08:43:25.156Z,29.03
2018-04-11T08:45:52.601Z,26.30
2018-04-11T08:48:20.010Z,25.57
2018-04-11T08:50:47.482Z,23.80
2018-04-11T08:53:14.912Z,26.00
2018-04-11T08:55:42.352Z,28.57
2018-04-11T08:58:09.768Z,26.17
2018-04-11T09:00:37.181Z,26.43
2018-04-11T09:03:04.651Z,26.13
2018-04-11T09:05:32.083Z,26.70
2018-04-11T09:07:59.497Z,27.80
2018-04-11T09:10:26.923Z,27.70
2018-04-11T09:12:54.348Z,25.37
2018-04-11T09:15:21.753Z,27.07
2018-04-11T09:17:49.266Z,25.53
2018-04-11T09:20:16.664Z,24.93
2018-04-11T09:22:44.096Z,24.63
2018-04-11T09:25:11.491Z,23.60
2018-04-11T09:27:38.916Z,26.70
2018-04-11T09:30:06.328Z,25.33
2018-04-11T09:32:33.753Z,24.63
2018-04-11T09:35:01.180Z,27.43
2018-04-11T09:37:28.920Z,27.77
2018-04-11T09:39:56.396Z,23.20
2018-04-11T09:42:23.807Z,24.63
2018-04-11T09:44:51.228Z,24.57
2018-04-11T09:47:18.656Z,25.40
2018-04-11T09:49:46.112Z,23.67
2018-04-11T09:52:13.547Z,27.73
2018-04-11T09:54:41.012Z,26.00
2018-04-11T09:57:08.412Z,29.30
2018-04-11T09:59:36.167Z,23.73
2018-04-11T10:02:06.680Z,27.03
2018-04-11T10:04:34.153Z,26.87
2018-04-11T10:07:01.633Z,29.37
2018-04-11T10:09:29.279Z,27.93
2018-04-11T10:11:56.720Z,28.80
2018-04-11T10:14:24.772Z,32.43
2018-04-11T10:16:52.209Z,30.47
2018-04-11T10:19:19.628Z,30.70
2018-04-11T10:21:47.063Z,30.97
2018-04-11T10:24:14.471Z,28.93
2018-04-11T10:26:41.882Z,30.23
2018-04-11T10:29:09.315Z,29.20
2018-04-11T10:31:36.735Z,26.60
2018-04-11T10:34:04.138Z,31.80
2018-04-11T10:36:32.167Z,27.93
2018-04-11T10:38:59.669Z,30.77
2018-04-11T10:41:27.234Z,31.47
2018-04-11T10:43:54.760Z,33.50
2018-04-11T10:46:22.174Z,32.90
2018-04-11T10:48:49.607Z,33.40
2018-04-11T10:51:17.012Z,30.40
2018-04-11T10:53:44.429Z,29.00
2018-04-11T10:56:11.860Z,33.20
2018-04-11T10:58:39.295Z,29.57
2018-04-11T11:01:06.696Z,28.70
2018-04-11T11:03:34.158Z,33.10
2018-04-11T11:06:01.575Z,32.10
2018-04-11T11:08:28.996Z,31.57
2018-04-11T11:10:56.428Z,29.33
2018-04-11T11:13:24.063Z,29.13
2018-04-11T11:15:51.462Z,29.20
2018-04-11T11:18:18.900Z,31.80
2018-04-11T11:20:59.291Z,31.43
2018-04-11T11:23:26.715Z,32.37
2018-04-11T11:25:54.151Z,31.93
2018-04-11T11:28:21.540Z,30.97
2018-04-11T11:30:49.158Z,30.70
2018-04-11T11:33:16.596Z,31.23
2018-04-11T11:35:44.015Z,31.03
2018-04-11T11:38:11.430Z,32.43
2018-04-11T11:40:38.959Z,32.27
2018-04-11T11:43:06.402Z,30.63
2018-04-11T11:45:33.820Z,31.83
2018-04-11T11:48:01.252Z,29.83
2018-04-11T11:50:28.660Z,30.27
2018-04-11T11:52:56.149Z,28.83
2018-04-11T11:55:23.567Z,30.00
2018-04-11T11:57:50.978Z,27.30
2018-04-11T12:00:18.479Z,28.93
2018-04-11T12:02:45.892Z,29.10
2018-04-11T12:05:13.367Z,29.27
2018-04-11T12:07:40.771Z,31.63
2018-04-11T12:10:08.176Z,30.07
2018-04-11T12:12:35.607Z,32.57
2018-04-11T12:15:03.300Z,34.17
2018-04-11T12:17:30.712Z,33.90
2018-04-11T12:19:58.145Z,32.77
2018-04-11T12:22:25.576Z,32.93
2018-04-11T12:24:53.280Z,33.10
2018-04-11T12:27:20.704Z,33.57
2018-04-11T12:29:48.108Z,33.43
2018-04-11T12:32:15.531Z,34.63
2018-04-11T12:34:42.939Z,36.73
2018-04-11T12:37:10.364Z,59.87
2018-04-11T12:39:37.773Z,35.93
2018-04-11T12:42:05.191Z,34.43
2018-04-11T12:44:32.600Z,43.20
2018-04-11T12:47:00.005Z,35.67
2018-04-11T12:49:27.568Z,36.57
2018-04-11T12:51:55.238Z,61.73
2018-04-11T12:54:22.652Z,37.73
2018-04-11T12:56:50.071Z,36.67
2018-04-11T13:02:07.967Z,34.37
2018-04-11T13:04:35.413Z,34.10
2018-04-11T13:07:02.841Z,35.77
2018-04-11T13:09:30.248Z,37.80
2018-04-11T13:11:57.673Z,37.67
2018-04-11T13:14:25.099Z,39.10
2018-04-11T13:16:52.512Z,36.90
2018-04-11T13:19:19.972Z,34.90
2018-04-11T13:21:47.382Z,39.80
2018-04-11T13:24:14.783Z,40.50
2018-04-11T13:26:42.441Z,38.63
2018-04-11T13:29:09.852Z,41.87
2018-04-11T13:31:37.273Z,41.73
2018-04-11T13:34:04.963Z,38.63
2018-04-11T13:36:32.363Z,39.87
2018-04-11T13:38:59.771Z,42.23
2018-04-11T13:41:27.212Z,40.13
2018-04-11T13:43:54.627Z,41.50
2018-04-11T13:46:22.044Z,44.43
2018-04-11T13:48:49.468Z,44.33
2018-04-11T13:51:16.896Z,44.23
2018-04-11T13:53:44.400Z,46.67
2018-04-11T13:56:11.800Z,46.63
2018-04-11T13:58:39.248Z,46.17
2018-04-11T14:01:06.668Z,50.93
2018-04-11T14:03:34.068Z,49.90
2018-04-11T14:06:01.515Z,49.83
2018-04-11T14:08:28.950Z,50.50
2018-04-11T14:10:56.352Z,47.40
2018-04-11T14:13:23.785Z,47.47
2018-04-11T14:15:51.191Z,47.97
2018-04-11T14:18:18.621Z,49.47
2018-04-11T14:20:46.058Z,48.33
2018-04-11T14:23:13.475Z,50.27
2018-04-11T14:25:40.916Z,50.23
2018-04-11T14:28:08.336Z,54.87
2018-04-11T14:30:35.743Z,58.17
2018-04-11T14:33:03.161Z,58.27
2018-04-11T14:35:30.597Z,55.10
2018-04-11T14:37:58.025Z,55.73
2018-04-11T14:40:25.439Z,55.77
2018-04-11T14:42:52.882Z,56.70
2018-04-11T14:45:20.288Z,57.63
2018-04-11T14:47:47.709Z,56.03
2018-04-11T14:50:15.125Z,57.83
2018-04-11T14:52:42.551Z,57.90
2018-04-11T14:55:09.996Z,57.73
2018-04-11T14:57:37.436Z,54.77
2018-04-11T15:00:04.894Z,56.27
2018-04-11T15:02:32.430Z,58.17
2018-04-11T15:04:59.851Z,58.60
2018-04-11T15:07:27.260Z,61.40
2018-04-11T15:09:54.972Z,58.87
2018-04-11T15:12:22.379Z,58.17
2018-04-11T15:14:49.789Z,57.77
2018-04-11T15:17:17.243Z,58.83
2018-04-11T15:19:44.661Z,58.13
2018-04-11T15:22:12.063Z,58.80
2018-04-11T15:24:40.692Z,60.57
2018-04-11T15:27:08.134Z,60.57
2018-04-11T15:29:35.542Z,60.53
2018-04-11T15:32:02.968Z,63.07
2018-04-11T15:34:30.400Z,63.03
2018-04-11T15:36:57.913Z,62.17
2018-04-11T15:39:25.366Z,61.53
2018-04-11T15:41:52.747Z,62.00
2018-04-11T15:44:20.166Z,62.27
2018-04-11T15:46:47.652Z,63.60
2018-04-11T15:49:15.074Z,62.63
2018-04-11T15:51:42.489Z,58.10
2018-04-11T15:54:09.933Z,55.90
2018-04-11T15:56:37.421Z,53.83
2018-04-11T15:59:04.820Z,56.80
2018-04-11T16:01:32.240Z,58.47
2018-04-11T16:03:59.665Z,57.50
2018-04-11T16:06:27.084Z,57.70
2018-04-11T16:08:54.507Z,55.47
2018-04-11T16:11:21.996Z,57.70
2018-04-11T16:13:49.416Z,57.23
2018-04-11T16:16:16.834Z,56.73
2018-04-11T16:18:44.231Z,61.20
2018-04-11T16:21:11.660Z,59.60
2018-04-11T16:23:39.070Z,60.87
2018-04-11T16:26:06.513Z,60.23
2018-04-11T16:28:33.915Z,57.37
2018-04-11T16:31:01.345Z,59.77
2018-04-11T16:33:28.766Z,57.77
2018-04-11T16:35:56.247Z,56.83
2018-04-11T16:38:23.692Z,59.87
2018-04-11T16:40:51.121Z,59.73
2018-04-11T16:43:18.585Z,60.43
2018-04-11T16:45:46.008Z,58.00
2018-04-11T16:48:13.420Z,59.93
2018-04-11T16:50:40.824Z,60.63
2018-04-11T16:53:08.263Z,57.90
2018-04-11T16:55:35.673Z,56.33
2018-04-11T16:58:03.242Z,58.63
2018-04-11T17:00:30.648Z,59.50
2018-04-11T17:02:58.065Z,55.47
2018-04-11T17:05:25.484Z,52.43
2018-04-11T17:07:52.983Z,52.83
2018-04-11T17:10:20.391Z,51.50
2018-04-11T17:12:47.799Z,50.53
2018-04-11T17:15:15.367Z,52.10
2018-04-11T17:17:42.773Z,50.57
2018-04-11T17:20:10.180Z,49.20
2018-04-11T17:22:49.572Z,51.17
2018-04-11T17:25:28.735Z,51.87
2018-04-11T17:28:07.868Z,49.93
2018-04-11T17:30:47.003Z,50.57
2018-04-11T17:33:14.417Z,52.90
2018-04-11T17:35:41.828Z,53.70
2018-04-11T17:38:09.258Z,52.13
2018-04-11T17:40:36.660Z,55.03
2018-04-11T17:43:04.088Z,55.27
2018-04-11T17:45:31.516Z,54.47
2018-04-11T17:47:58.945Z,54.27
2018-04-11T17:50:26.370Z,54.40
2018-04-11T17:52:53.842Z,56.43
2018-04-11T17:55:21.216Z,54.23
2018-04-11T17:57:48.636Z,57.10
2018-04-11T18:00:16.045Z,61.20
2018-04-11T18:02:43.463Z,59.03
2018-04-11T18:05:10.874Z,59.07
2018-04-11T18:07:38.292Z,56.17
2018-04-11T18:10:05.703Z,58.30
2018-04-11T18:12:33.132Z,57.23
2018-04-11T18:15:00.568Z,53.50
2018-04-11T18:17:28.022Z,55.07
2018-04-11T18:19:55.435Z,56.67
2018-04-11T18:22:22.865Z,53.43
2018-04-11T18:24:50.363Z,53.83
2018-04-11T18:27:17.776Z,54.73
2018-04-11T18:29:45.202Z,50.57
2018-04-11T18:32:12.701Z,52.00
2018-04-11T18:34:40.124Z,54.07
2018-04-11T18:37:07.553Z,52.73
2018-04-11T18:39:35.014Z,50.23
2018-04-11T18:42:02.469Z,53.60
2018-04-11T18:44:29.884Z,51.73
2018-04-11T18:46:57.293Z,53.33
2018-04-11T18:49:24.724Z,53.03
2018-04-11T18:51:52.133Z,48.50
2018-04-11T18:54:19.561Z,50.60
2018-04-11T18:56:46.961Z,49.00
2018-04-11T18:59:14.401Z,48.90
2018-04-11T19:01:41.839Z,46.17
2018-04-11T19:04:09.269Z,49.17
2018-04-11T19:06:36.692Z,44.90
2018-04-11T19:09:04.113Z,49.00
2018-04-11T19:11:31.523Z,49.37
2018-04-11T19:13:58.985Z,46.37
2018-04-11T19:16:26.397Z,45.73
2018-04-11T19:18:53.896Z,42.23
2018-04-11T19:21:21.322Z,41.37
2018-04-11T19:23:48.739Z,40.17
2018-04-11T19:26:16.175Z,38.50
2018-04-11T19:28:43.625Z,37.43
2018-04-11T19:31:11.248Z,36.93
2018-04-11T19:33:38.668Z,36.87
2018-04-11T19:36:06.108Z,38.53
2018-04-11T19:38:33.551Z,39.10
2018-04-11T19:41:01.083Z,39.03
2018-04-11T19:43:28.517Z,40.57
2018-04-11T19:45:55.928Z,42.67
2018-04-11T19:48:23.446Z,43.43
2018-04-11T19:50:50.843Z,44.33
2018-04-11T19:53:18.276Z,44.33
2018-04-11T19:55:45.723Z,45.97
2018-04-11T19:58:13.125Z,46.63
2018-04-11T20:00:40.527Z,45.43
2018-04-11T20:03:07.958Z,48.27
2018-04-11T20:05:35.367Z,48.30
2018-04-11T20:08:02.831Z,49.17
2018-04-11T20:10:30.340Z,49.03
2018-04-11T20:12:57.740Z,52.20
2018-04-11T20:15:25.176Z,53.03
2018-04-11T20:17:52.605Z,55.93
2018-04-11T20:20:20.041Z,55.90
2018-04-11T20:22:47.448Z,52.17
2018-04-11T20:25:15.031Z,56.87
2018-04-11T20:27:42.432Z,56.97
2018-04-11T20:30:09.843Z,58.63
2018-04-11T20:32:37.272Z,59.93
2018-04-11T20:35:04.678Z,58.20
2018-04-11T20:37:32.084Z,57.17
2018-04-11T20:39:59.499Z,59.37
2018-04-11T20:42:26.925Z,57.83
2018-04-11T20:44:54.352Z,57.73
2018-04-11T20:47:21.960Z,57.47
2018-04-11T20:49:49.364Z,59.47
2018-04-11T20:52:16.791Z,57.67
2018-04-11T20:54:44.212Z,57.37
2018-04-11T20:57:11.630Z,57.63
2018-04-11T20:59:39.108Z,55.67
2018-04-11T21:02:06.514Z,57.80
2018-04-11T21:04:33.935Z,55.23
2018-04-11T21:07:01.361Z,55.63
2018-04-11T21:09:28.769Z,56.87
2018-04-11T21:11:56.211Z,54.40
2018-04-11T21:14:23.615Z,58.57
2018-04-11T21:16:51.046Z,56.87
2018-04-11T21:19:18.473Z,56.73
2018-04-11T21:21:45.888Z,57.67
2018-04-11T21:24:13.332Z,56.27
2018-04-11T21:26:40.756Z,58.63
2018-04-11T21:29:08.161Z,53.70
2018-04-11T21:31:35.559Z,60.43
2018-04-11T21:34:03.015Z,57.27
2018-04-11T21:36:30.446Z,52.90
2018-04-11T21:38:57.936Z,53.47
2018-04-11T21:41:25.371Z,50.53
2018-04-11T21:43:52.788Z,55.67
2018-04-11T21:46:20.197Z,53.40
2018-04-11T21:48:47.597Z,55.23
2018-04-11T21:51:15.023Z,52.87
2018-04-11T21:53:42.436Z,55.60
2018-04-11T21:56:09.999Z,52.10
2018-04-11T21:58:37.413Z,57.37
2018-04-11T22:01:04.816Z,55.03
2018-04-11T22:03:32.236Z,56.80
2018-04-11T22:05:59.648Z,53.60
2018-04-11T22:08:27.070Z,54.67
2018-04-11T22:10:54.480Z,56.20
2018-04-11T22:13:21.907Z,54.70
2018-04-11T22:15:49.364Z,53.33
2018-04-11T22:18:16.796Z,55.37
2018-04-11T22:20:44.211Z,54.03
2018-04-11T22:23:11.616Z,47.80
2018-04-11T22:25:39.039Z,52.40
2018-04-11T22:28:06.444Z,50.63
2018-04-11T22:30:33.869Z,52.03
2018-04-11T22:33:01.464Z,53.53
2018-04-11T22:35:28.884Z,51.77
2018-04-11T22:37:56.297Z,49.73
2018-04-11T22:40:23.717Z,44.03
2018-04-11T22:42:51.127Z,44.73
2018-04-11T22:45:18.562Z,44.73
2018-04-11T22:47:45.965Z,45.30
2018-04-11T22:50:13.392Z,48.37
2018-04-11T22:52:40.860Z,47.03
2018-04-11T22:55:08.272Z,45.97
2018-04-11T22:57:35.688Z,47.33
2018-04-11T23:00:03.121Z,46.30
2018-04-11T23:02:30.539Z,47.30
2018-04-11T23:04:58.003Z,44.33
2018-04-11T23:07:25.429Z,40.20
2018-04-11T23:09:52.840Z,47.30
2018-04-11T23:12:20.268Z,44.70
2018-04-11T23:14:47.693Z,47.90
2018-04-11T23:17:15.105Z,43.07
2018-04-11T23:19:42.519Z,42.40
2018-04-11T23:22:09.928Z,43.20
2018-04-11T23:24:37.364Z,41.60
2018-04-11T23:27:04.791Z,44.23
2018-04-11T23:29:32.214Z,44.70
2018-04-11T23:31:59.625Z,42.23
2018-04-11T23:34:27.047Z,48.90
2018-04-11T23:36:54.479Z,42.80
2018-04-11T23:39:21.888Z,39.83
2018-04-11T23:41:49.317Z,40.13
2018-04-11T23:44:16.740Z,41.80
2018-04-11T23:46:44.172Z,39.23
2018-04-11T23:49:11.580Z,41.60
2018-04-11T23:51:39.004Z,44.97
2018-04-11T23:54:06.429Z,42.20
2018-04-11T23:56:33.854Z,37.60
2018-04-11T23:59:01.260Z,34.97
